sensor_id;sensor_type;location;lat;lon;timestamp;pressure;altitude;pressure_sealevel;temperature;humidity
75208;BME280;63795;55.684;37.864;2022-12-18T00:04:55;99391.50;;;-4.13;81.73
75208;BME280;63795;55.684;37.864;2022-12-18T00:09:56;99372.53;;;-4.37;81.60
75208;BME280;63795;55.684;37.864;2022-12-18T00:14:56;99367.69;;;-4.31;82.24
75208;BME280;63795;55.684;37.864;2022-12-18T00:19:56;99354.81;;;-4.36;82.08
75208;BME280;63795;55.684;37.864;2022-12-18T00:24:57;99358.06;;;-4.34;82.07
75208;BME280;63795;55.684;37.864;2022-12-18T00:29:57;99347.31;;;-4.44;82.11
75208;BME280;63795;55.684;37.864;2022-12-18T00:34:58;99337.84;;;-4.43;82.03
75208;BME280;63795;55.684;37.864;2022-12-18T00:39:58;99336.25;;;-4.44;82.01
75208;BME280;63795;55.684;37.864;2022-12-18T00:44:59;99325.81;;;-4.47;81.83
75208;BME280;63795;55.684;37.864;2022-12-18T00:49:59;99303.53;;;-4.50;81.94
75208;BME280;63795;55.684;37.864;2022-12-18T00:55:00;99305.16;;;-4.41;82.00
75208;BME280;63795;55.684;37.864;2022-12-18T01:00:01;99282.88;;;-4.44;81.45
75208;BME280;63795;55.684;37.864;2022-12-18T01:05:01;99274.75;;;-4.49;81.69
75208;BME280;63795;55.684;37.864;2022-12-18T01:10:03;99264.34;;;-4.44;81.36
75208;BME280;63795;55.684;37.864;2022-12-18T01:15:05;99258.47;;;-4.42;81.21
75208;BME280;63795;55.684;37.864;2022-12-18T01:20:07;99245.44;;;-4.50;80.82
75208;BME280;63795;55.684;37.864;2022-12-18T01:25:08;99251.47;;;-4.48;80.84
75208;BME280;63795;55.684;37.864;2022-12-18T01:30:09;99237.47;;;-4.52;80.73
75208;BME280;63795;55.684;37.864;2022-12-18T01:35:10;99252.28;;;-4.48;80.93
75208;BME280;63795;55.684;37.864;2022-12-18T01:40:10;99250.66;;;-4.40;80.77
75208;BME280;63795;55.684;37.864;2022-12-18T01:50:15;99244.50;;;-4.46;79.77
75208;BME280;63795;55.684;37.864;2022-12-18T01:55:18;99236.19;;;-4.46;80.39
75208;BME280;63795;55.684;37.864;2022-12-18T02:00:21;99236.69;;;-4.44;79.97
75208;BME280;63795;55.684;37.864;2022-12-18T02:05:35;99241.84;;;-4.51;80.17
75208;BME280;63795;55.684;37.864;2022-12-18T02:21:36;99230.34;;;-4.36;80.38
75208;BME280;63795;55.684;37.864;2022-12-18T02:26:49;99228.56;;;-4.32;80.07
75208;BME280;63795;55.684;37.864;2022-12-18T02:31:56;99215.69;;;-4.36;80.21
75208;BME280;63795;55.684;37.864;2022-12-18T02:37:00;99206.28;;;-4.35;80.04
75208;BME280;63795;55.684;37.864;2022-12-18T02:42:03;99215.84;;;-4.33;80.15
75208;BME280;63795;55.684;37.864;2022-12-18T02:47:10;99225.94;;;-4.28;79.83
75208;BME280;63795;55.684;37.864;2022-12-18T02:57:40;99217.28;;;-4.61;79.99
75208;BME280;63795;55.684;37.864;2022-12-18T03:02:51;99227.38;;;-4.56;80.22
75208;BME280;63795;55.684;37.864;2022-12-18T03:08:02;99213.88;;;-4.66;80.05
75208;BME280;63795;55.684;37.864;2022-12-18T03:13:20;99206.72;;;-4.59;80.66
75208;BME280;63795;55.684;37.864;2022-12-18T03:18:27;99193.22;;;-4.60;80.34
75208;BME280;63795;55.684;37.864;2022-12-18T03:23:34;99212.09;;;-4.62;80.08
75208;BME280;63795;55.684;37.864;2022-12-18T03:28:38;99225.41;;;-4.64;80.09
75208;BME280;63795;55.684;37.864;2022-12-18T03:38:46;99228.03;;;-4.59;80.29
75208;BME280;63795;55.684;37.864;2022-12-18T03:44:15;99214.53;;;-4.61;80.39
75208;BME280;63795;55.684;37.864;2022-12-18T03:49:37;99225.59;;;-4.61;79.85
75208;BME280;63795;55.684;37.864;2022-12-18T03:54:39;99219.09;;;-4.56;80.03
75208;BME280;63795;55.684;37.864;2022-12-18T03:59:43;99210.78;;;-4.73;80.32
75208;BME280;63795;55.684;37.864;2022-12-18T04:04:45;99226.88;;;-4.67;80.44
75208;BME280;63795;55.684;37.864;2022-12-18T04:09:48;99231.91;;;-4.69;79.82
75208;BME280;63795;55.684;37.864;2022-12-18T04:14:49;99230.13;;;-4.65;79.26
75208;BME280;63795;55.684;37.864;2022-12-18T04:19:50;99223.63;;;-4.60;79.83
75208;BME280;63795;55.684;37.864;2022-12-18T04:24:50;99250.78;;;-4.62;79.57
75208;BME280;63795;55.684;37.864;2022-12-18T04:29:51;99269.66;;;-4.64;79.65
75208;BME280;63795;55.684;37.864;2022-12-18T04:34:51;99262.97;;;-4.72;79.75
75208;BME280;63795;55.684;37.864;2022-12-18T04:39:52;99275.16;;;-4.73;79.72
75208;BME280;63795;55.684;37.864;2022-12-18T04:44:52;99291.53;;;-4.85;79.04
75208;BME280;63795;55.684;37.864;2022-12-18T04:49:53;99303.25;;;-4.88;79.38
75208;BME280;63795;55.684;37.864;2022-12-18T04:54:53;99322.91;;;-4.81;79.33
75208;BME280;63795;55.684;37.864;2022-12-18T04:59:53;99336.91;;;-4.86;78.91
75208;BME280;63795;55.684;37.864;2022-12-18T05:04:54;99361.41;;;-4.93;79.19
75208;BME280;63795;55.684;37.864;2022-12-18T05:09:54;99356.34;;;-4.99;78.94
75208;BME280;63795;55.684;37.864;2022-12-18T05:14:55;99344.03;;;-4.93;79.30
75208;BME280;63795;55.684;37.864;2022-12-18T05:19:55;99345.13;;;-4.94;79.11
75208;BME280;63795;55.684;37.864;2022-12-18T05:24:56;99345.63;;;-4.92;78.94
75208;BME280;63795;55.684;37.864;2022-12-18T05:29:56;99346.63;;;-4.88;79.33
75208;BME280;63795;55.684;37.864;2022-12-18T05:34:56;99355.41;;;-4.86;79.50
75208;BME280;63795;55.684;37.864;2022-12-18T05:39:57;99373.16;;;-4.79;78.19
75208;BME280;63795;55.684;37.864;2022-12-18T05:44:57;99395.09;;;-4.82;78.96
75208;BME280;63795;55.684;37.864;2022-12-18T05:49:58;99391.94;;;-4.98;78.89
75208;BME280;63795;55.684;37.864;2022-12-18T05:54:58;99393.28;;;-4.87;79.14
75208;BME280;63795;55.684;37.864;2022-12-18T05:59:59;99394.75;;;-4.89;78.41
75208;BME280;63795;55.684;37.864;2022-12-18T06:04:59;99396.97;;;-5.00;78.70
75208;BME280;63795;55.684;37.864;2022-12-18T06:10:00;99421.66;;;-5.03;79.05
75208;BME280;63795;55.684;37.864;2022-12-18T06:15:01;99424.22;;;-5.07;79.13
75208;BME280;63795;55.684;37.864;2022-12-18T06:20:01;99438.84;;;-5.06;79.15
75208;BME280;63795;55.684;37.864;2022-12-18T06:25:03;99435.97;;;-5.01;79.25
75208;BME280;63795;55.684;37.864;2022-12-18T06:30:04;99434.72;;;-4.95;79.05
75208;BME280;63795;55.684;37.864;2022-12-18T06:35:05;99436.41;;;-5.08;78.77
75208;BME280;63795;55.684;37.864;2022-12-18T06:40:06;99449.72;;;-5.10;78.97
75208;BME280;63795;55.684;37.864;2022-12-18T06:45:07;99453.81;;;-5.07;79.50
75208;BME280;63795;55.684;37.864;2022-12-18T06:50:08;99475.59;;;-5.06;78.97
75208;BME280;63795;55.684;37.864;2022-12-18T06:55:10;99492.28;;;-5.11;79.23
75208;BME280;63795;55.684;37.864;2022-12-18T07:00:11;99507.22;;;-5.12;78.98
75208;BME280;63795;55.684;37.864;2022-12-18T07:05:11;99526.44;;;-5.07;78.70
75208;BME280;63795;55.684;37.864;2022-12-18T07:10:12;99529.19;;;-5.07;78.99
75208;BME280;63795;55.684;37.864;2022-12-18T07:15:12;99529.84;;;-4.88;79.28
75208;BME280;63795;55.684;37.864;2022-12-18T07:20:13;99525.94;;;-4.87;78.03
75208;BME280;63795;55.684;37.864;2022-12-18T07:25:13;99525.19;;;-5.01;78.88
75208;BME280;63795;55.684;37.864;2022-12-18T07:30:14;99543.09;;;-4.98;78.11
75208;BME280;63795;55.684;37.864;2022-12-18T07:35:14;99564.44;;;-4.90;77.93
75208;BME280;63795;55.684;37.864;2022-12-18T07:40:15;99564.25;;;-4.94;77.84
75208;BME280;63795;55.684;37.864;2022-12-18T07:45:16;99560.91;;;-5.04;77.71
75208;BME280;63795;55.684;37.864;2022-12-18T07:50:17;99580.44;;;-5.01;77.56
75208;BME280;63795;55.684;37.864;2022-12-18T07:55:17;99585.69;;;-4.99;77.87
75208;BME280;63795;55.684;37.864;2022-12-18T08:00:18;99572.72;;;-5.12;77.26
75208;BME280;63795;55.684;37.864;2022-12-18T08:05:18;99588.41;;;-4.86;78.12
75208;BME280;63795;55.684;37.864;2022-12-18T08:10:20;99591.66;;;-4.84;76.51
75208;BME280;63795;55.684;37.864;2022-12-18T08:15:21;99606.00;;;-4.82;77.85
75208;BME280;63795;55.684;37.864;2022-12-18T08:20:21;99621.13;;;-4.79;76.24
75208;BME280;63795;55.684;37.864;2022-12-18T08:25:22;99633.00;;;-4.79;77.29
75208;BME280;63795;55.684;37.864;2022-12-18T08:30:25;99634.88;;;-4.88;76.39
75208;BME280;63795;55.684;37.864;2022-12-18T08:35:25;99651.47;;;-4.88;77.52
75208;BME280;63795;55.684;37.864;2022-12-18T08:40:28;99668.13;;;-4.79;76.46
75208;BME280;63795;55.684;37.864;2022-12-18T08:45:31;99665.16;;;-4.83;76.85
75208;BME280;63795;55.684;37.864;2022-12-18T08:50:33;99659.00;;;-4.80;76.75
75208;BME280;63795;55.684;37.864;2022-12-18T08:55:33;99674.16;;;-4.77;76.51
75208;BME280;63795;55.684;37.864;2022-12-18T09:00:34;99681.09;;;-4.66;77.48
75208;BME280;63795;55.684;37.864;2022-12-18T09:05:34;99696.25;;;-4.64;76.82
75208;BME280;63795;55.684;37.864;2022-12-18T09:10:43;99675.47;;;-4.75;77.23
75208;BME280;63795;55.684;37.864;2022-12-18T09:15:45;99686.28;;;-4.51;77.23
75208;BME280;63795;55.684;37.864;2022-12-18T09:20:47;99697.94;;;-4.54;76.83
75208;BME280;63795;55.684;37.864;2022-12-18T09:25:48;99695.09;;;-4.63;77.18
75208;BME280;63795;55.684;37.864;2022-12-18T09:30:49;99722.41;;;-4.48;77.26
75208;BME280;63795;55.684;37.864;2022-12-18T09:35:50;99695.22;;;-4.68;76.37
75208;BME280;63795;55.684;37.864;2022-12-18T09:40:59;99728.78;;;-4.47;76.88
75208;BME280;63795;55.684;37.864;2022-12-18T09:46:05;99739.75;;;-4.56;76.82
75208;BME280;63795;55.684;37.864;2022-12-18T09:51:32;99746.63;;;-4.53;77.17
75208;BME280;63795;55.684;37.864;2022-12-18T09:56:40;99739.34;;;-4.63;77.04
75208;BME280;63795;55.684;37.864;2022-12-18T10:01:41;99745.69;;;-4.62;77.19
75208;BME280;63795;55.684;37.864;2022-12-18T10:07:16;99755.41;;;-4.65;77.21
75208;BME280;63795;55.684;37.864;2022-12-18T10:12:30;99762.28;;;-4.62;77.51
75208;BME280;63795;55.684;37.864;2022-12-18T10:27:58;99763.28;;;-4.58;77.81
75208;BME280;63795;55.684;37.864;2022-12-18T10:33:01;99741.22;;;-4.72;77.81
75208;BME280;63795;55.684;37.864;2022-12-18T10:38:21;99745.50;;;-4.66;77.79
75208;BME280;63795;55.684;37.864;2022-12-18T10:43:26;99772.63;;;-4.54;77.92
75208;BME280;63795;55.684;37.864;2022-12-18T10:48:28;99779.19;;;-4.64;78.33
75208;BME280;63795;55.684;37.864;2022-12-18T10:53:35;99771.09;;;-4.74;78.29
75208;BME280;63795;55.684;37.864;2022-12-18T10:58:40;99792.09;;;-4.59;77.89
75208;BME280;63795;55.684;37.864;2022-12-18T11:04:00;99825.38;;;-4.64;77.75
75208;BME280;63795;55.684;37.864;2022-12-18T11:09:04;99837.06;;;-4.67;78.14
75208;BME280;63795;55.684;37.864;2022-12-18T11:14:12;99845.75;;;-4.60;78.50
75208;BME280;63795;55.684;37.864;2022-12-18T11:24:34;99855.97;;;-4.61;78.67
75208;BME280;63795;55.684;37.864;2022-12-18T11:29:37;99845.53;;;-4.64;78.96
75208;BME280;63795;55.684;37.864;2022-12-18T11:34:39;99842.66;;;-4.59;79.00
75208;BME280;63795;55.684;37.864;2022-12-18T11:39:46;99859.88;;;-4.62;78.76
75208;BME280;63795;55.684;37.864;2022-12-18T11:44:52;99867.97;;;-4.65;78.86
75208;BME280;63795;55.684;37.864;2022-12-18T11:49:55;99870.00;;;-4.71;79.25
75208;BME280;63795;55.684;37.864;2022-12-18T11:55:01;99871.53;;;-4.78;79.16
75208;BME280;63795;55.684;37.864;2022-12-18T12:00:15;99892.13;;;-4.71;79.24
75208;BME280;63795;55.684;37.864;2022-12-18T12:16:25;99942.41;;;-4.69;79.04
75208;BME280;63795;55.684;37.864;2022-12-18T12:22:03;99942.72;;;-4.70;79.02
75208;BME280;63795;55.684;37.864;2022-12-18T12:42:56;99962.97;;;-4.75;78.74
75208;BME280;63795;55.684;37.864;2022-12-18T12:53:31;99981.72;;;-4.72;78.98
75208;BME280;63795;55.684;37.864;2022-12-18T13:04:08;100012.00;;;-4.80;78.72
75208;BME280;63795;55.684;37.864;2022-12-18T13:09:12;100018.94;;;-4.83;79.00
75208;BME280;63795;55.684;37.864;2022-12-18T13:14:25;100041.06;;;-4.83;79.16
75208;BME280;63795;55.684;37.864;2022-12-18T13:19:26;100043.75;;;-4.78;79.23
75208;BME280;63795;55.684;37.864;2022-12-18T13:24:30;100044.69;;;-4.69;79.54
75208;BME280;63795;55.684;37.864;2022-12-18T13:29:45;100062.25;;;-4.60;79.50
75208;BME280;63795;55.684;37.864;2022-12-18T13:34:46;100068.63;;;-4.59;79.00
75208;BME280;63795;55.684;37.864;2022-12-18T13:39:46;100076.16;;;-4.65;78.83
75208;BME280;63795;55.684;37.864;2022-12-18T13:44:47;100094.25;;;-4.72;79.07
75208;BME280;63795;55.684;37.864;2022-12-18T13:49:47;100099.09;;;-4.64;79.39
75208;BME280;63795;55.684;37.864;2022-12-18T13:54:54;100103.00;;;-4.65;79.35
75208;BME280;63795;55.684;37.864;2022-12-18T13:59:56;100111.16;;;-4.74;78.85
75208;BME280;63795;55.684;37.864;2022-12-18T14:04:56;100141.78;;;-4.70;79.44
75208;BME280;63795;55.684;37.864;2022-12-18T14:09:59;100147.66;;;-4.77;79.49
75208;BME280;63795;55.684;37.864;2022-12-18T14:15:01;100153.88;;;-4.85;79.50
75208;BME280;63795;55.684;37.864;2022-12-18T14:20:02;100166.44;;;-4.74;79.87
75208;BME280;63795;55.684;37.864;2022-12-18T14:35:28;100188.03;;;-4.76;78.69
75208;BME280;63795;55.684;37.864;2022-12-18T14:40:29;100193.56;;;-4.76;79.37
75208;BME280;63795;55.684;37.864;2022-12-18T14:45:51;100204.94;;;-4.77;79.34
75208;BME280;63795;55.684;37.864;2022-12-18T14:51:22;100221.75;;;-4.74;78.62
75208;BME280;63795;55.684;37.864;2022-12-18T14:56:30;100228.16;;;-4.78;78.33
75208;BME280;63795;55.684;37.864;2022-12-18T15:01:44;100222.84;;;-4.93;78.51
75208;BME280;63795;55.684;37.864;2022-12-18T15:06:45;100236.66;;;-4.75;78.48
75208;BME280;63795;55.684;37.864;2022-12-18T15:11:46;100225.00;;;-4.90;78.11
75208;BME280;63795;55.684;37.864;2022-12-18T15:16:54;100255.97;;;-4.70;78.58
75208;BME280;63795;55.684;37.864;2022-12-18T15:21:55;100265.16;;;-4.74;77.90
75208;BME280;63795;55.684;37.864;2022-12-18T15:26:55;100274.41;;;-4.84;77.40
75208;BME280;63795;55.684;37.864;2022-12-18T15:32:04;100280.50;;;-4.87;77.37
75208;BME280;63795;55.684;37.864;2022-12-18T15:37:07;100288.03;;;-4.92;77.21
75208;BME280;63795;55.684;37.864;2022-12-18T15:42:09;100295.81;;;-4.94;78.03
75208;BME280;63795;55.684;37.864;2022-12-18T15:47:28;100295.63;;;-5.03;77.62
75208;BME280;63795;55.684;37.864;2022-12-18T15:52:29;100315.44;;;-4.96;77.95
75208;BME280;63795;55.684;37.864;2022-12-18T15:57:29;100318.63;;;-5.07;77.05
75208;BME280;63795;55.684;37.864;2022-12-18T16:02:30;100308.03;;;-5.24;77.08
75208;BME280;63795;55.684;37.864;2022-12-18T16:07:30;100335.72;;;-5.29;77.51
75208;BME280;63795;55.684;37.864;2022-12-18T16:12:31;100346.22;;;-5.31;77.37
75208;BME280;63795;55.684;37.864;2022-12-18T16:17:31;100361.19;;;-5.37;77.32
75208;BME280;63795;55.684;37.864;2022-12-18T16:22:32;100360.16;;;-5.46;77.17
75208;BME280;63795;55.684;37.864;2022-12-18T16:27:32;100372.13;;;-5.56;77.34
75208;BME280;63795;55.684;37.864;2022-12-18T16:32:36;100394.97;;;-5.50;77.16
75208;BME280;63795;55.684;37.864;2022-12-18T16:37:37;100392.28;;;-5.55;76.33
75208;BME280;63795;55.684;37.864;2022-12-18T16:42:39;100388.28;;;-5.78;76.12
75208;BME280;63795;55.684;37.864;2022-12-18T16:47:40;100412.09;;;-5.87;76.71
75208;BME280;63795;55.684;37.864;2022-12-18T16:52:41;100423.72;;;-5.90;76.94
75208;BME280;63795;55.684;37.864;2022-12-18T16:57:41;100417.06;;;-5.84;76.87
75208;BME280;63795;55.684;37.864;2022-12-18T17:02:42;100429.50;;;-5.86;76.58
75208;BME280;63795;55.684;37.864;2022-12-18T17:07:42;100423.53;;;-6.03;76.61
75208;BME280;63795;55.684;37.864;2022-12-18T17:12:43;100460.69;;;-5.91;77.19
75208;BME280;63795;55.684;37.864;2022-12-18T17:17:43;100451.69;;;-6.07;76.32
75208;BME280;63795;55.684;37.864;2022-12-18T17:22:44;100459.41;;;-6.09;76.47
75208;BME280;63795;55.684;37.864;2022-12-18T17:27:44;100485.91;;;-6.07;76.26
75208;BME280;63795;55.684;37.864;2022-12-18T17:32:46;100489.25;;;-6.16;76.18
75208;BME280;63795;55.684;37.864;2022-12-18T17:37:47;100501.97;;;-6.35;76.21
75208;BME280;63795;55.684;37.864;2022-12-18T17:42:51;100500.94;;;-6.54;75.48
75208;BME280;63795;55.684;37.864;2022-12-18T17:47:52;100513.94;;;-6.69;75.25
75208;BME280;63795;55.684;37.864;2022-12-18T17:52:56;100534.59;;;-6.72;75.55
75208;BME280;63795;55.684;37.864;2022-12-18T17:57:57;100542.28;;;-6.69;75.65
75208;BME280;63795;55.684;37.864;2022-12-18T18:02:58;100524.97;;;-6.89;75.58
75208;BME280;63795;55.684;37.864;2022-12-18T18:07:58;100540.63;;;-7.05;74.42
75208;BME280;63795;55.684;37.864;2022-12-18T18:13:00;100554.38;;;-7.25;74.45
75208;BME280;63795;55.684;37.864;2022-12-18T18:18:20;100553.25;;;-7.39;75.42
75208;BME280;63795;55.684;37.864;2022-12-18T18:23:20;100565.34;;;-7.45;74.58
75208;BME280;63795;55.684;37.864;2022-12-18T18:28:21;100586.00;;;-7.53;75.29
75208;BME280;63795;55.684;37.864;2022-12-18T18:33:21;100588.19;;;-7.60;75.18
75208;BME280;63795;55.684;37.864;2022-12-18T18:38:22;100604.41;;;-7.53;75.56
75208;BME280;63795;55.684;37.864;2022-12-18T18:43:23;100585.97;;;-7.63;75.27
75208;BME280;63795;55.684;37.864;2022-12-18T18:48:29;100610.72;;;-7.68;74.91
75208;BME280;63795;55.684;37.864;2022-12-18T18:53:30;100621.34;;;-7.87;74.87
75208;BME280;63795;55.684;37.864;2022-12-18T18:58:31;100624.28;;;-8.03;75.34
75208;BME280;63795;55.684;37.864;2022-12-18T19:03:32;100635.88;;;-7.96;75.35
75208;BME280;63795;55.684;37.864;2022-12-18T19:08:36;100636.97;;;-7.97;74.92
75208;BME280;63795;55.684;37.864;2022-12-18T19:13:36;100662.03;;;-7.94;75.35
75208;BME280;63795;55.684;37.864;2022-12-18T19:18:37;100665.81;;;-8.05;75.19
75208;BME280;63795;55.684;37.864;2022-12-18T19:23:37;100679.97;;;-8.28;73.98
75208;BME280;63795;55.684;37.864;2022-12-18T19:28:38;100692.50;;;-8.42;73.72
75208;BME280;63795;55.684;37.864;2022-12-18T19:33:41;100693.78;;;-8.49;74.52
75208;BME280;63795;55.684;37.864;2022-12-18T19:38:41;100701.13;;;-8.60;73.53
75208;BME280;63795;55.684;37.864;2022-12-18T19:43:42;100718.59;;;-8.71;73.99
75208;BME280;63795;55.684;37.864;2022-12-18T19:48:43;100723.50;;;-8.78;74.17
75208;BME280;63795;55.684;37.864;2022-12-18T19:53:45;100722.09;;;-8.81;74.43
75208;BME280;63795;55.684;37.864;2022-12-18T19:58:46;100701.81;;;-9.01;74.04
75208;BME280;63795;55.684;37.864;2022-12-18T20:03:46;100737.88;;;-8.93;73.52
75208;BME280;63795;55.684;37.864;2022-12-18T20:08:49;100754.06;;;-8.96;74.17
75208;BME280;63795;55.684;37.864;2022-12-18T20:13:49;100744.25;;;-9.14;73.96
75208;BME280;63795;55.684;37.864;2022-12-18T20:18:50;100754.00;;;-9.23;73.33
75208;BME280;63795;55.684;37.864;2022-12-18T20:23:50;100772.19;;;-9.38;74.20
75208;BME280;63795;55.684;37.864;2022-12-18T20:28:51;100775.41;;;-9.41;74.26
75208;BME280;63795;55.684;37.864;2022-12-18T20:33:51;100752.56;;;-9.69;74.22
75208;BME280;63795;55.684;37.864;2022-12-18T20:38:52;100776.88;;;-9.56;73.88
75208;BME280;63795;55.684;37.864;2022-12-18T20:43:54;100779.69;;;-9.50;74.22
75208;BME280;63795;55.684;37.864;2022-12-18T20:48:56;100779.38;;;-9.54;74.46
75208;BME280;63795;55.684;37.864;2022-12-18T20:53:56;100781.72;;;-9.63;74.47
75208;BME280;63795;55.684;37.864;2022-12-18T20:58:59;100785.94;;;-9.72;74.42
75208;BME280;63795;55.684;37.864;2022-12-18T21:04:00;100799.44;;;-9.70;74.02
75208;BME280;63795;55.684;37.864;2022-12-18T21:09:00;100801.78;;;-9.79;74.29
75208;BME280;63795;55.684;37.864;2022-12-18T21:14:02;100795.59;;;-9.86;74.34
75208;BME280;63795;55.684;37.864;2022-12-18T21:19:03;100797.28;;;-9.85;74.78
75208;BME280;63795;55.684;37.864;2022-12-18T21:24:05;100794.22;;;-9.88;74.75
75208;BME280;63795;55.684;37.864;2022-12-18T21:29:09;100804.94;;;-9.87;75.24
75208;BME280;63795;55.684;37.864;2022-12-18T21:34:23;100817.06;;;-9.83;74.81
75208;BME280;63795;55.684;37.864;2022-12-18T21:39:28;100819.22;;;-9.85;75.25
75208;BME280;63795;55.684;37.864;2022-12-18T21:44:29;100813.56;;;-9.95;75.06
75208;BME280;63795;55.684;37.864;2022-12-18T21:49:30;100827.13;;;-9.88;75.08
75208;BME280;63795;55.684;37.864;2022-12-18T21:54:32;100834.56;;;-9.84;74.97
75208;BME280;63795;55.684;37.864;2022-12-18T21:59:37;100834.00;;;-9.86;74.70
75208;BME280;63795;55.684;37.864;2022-12-18T22:04:38;100836.34;;;-9.94;74.94
75208;BME280;63795;55.684;37.864;2022-12-18T22:09:39;100838.00;;;-10.10;74.77
75208;BME280;63795;55.684;37.864;2022-12-18T22:14:39;100865.47;;;-10.05;74.89
75208;BME280;63795;55.684;37.864;2022-12-18T22:19:40;100876.38;;;-10.10;74.66
75208;BME280;63795;55.684;37.864;2022-12-18T22:24:40;100865.59;;;-10.16;75.13
75208;BME280;63795;55.684;37.864;2022-12-18T22:29:41;100853.59;;;-10.27;75.11
75208;BME280;63795;55.684;37.864;2022-12-18T22:35:01;100866.50;;;-10.11;75.04
75208;BME280;63795;55.684;37.864;2022-12-18T22:40:03;100856.41;;;-10.05;75.41
75208;BME280;63795;55.684;37.864;2022-12-18T22:45:04;100861.94;;;-9.89;75.21
75208;BME280;63795;55.684;37.864;2022-12-18T22:50:04;100876.88;;;-9.80;74.17
75208;BME280;63795;55.684;37.864;2022-12-18T22:55:05;100872.06;;;-9.89;74.37
75208;BME280;63795;55.684;37.864;2022-12-18T23:00:07;100883.53;;;-9.92;74.65
75208;BME280;63795;55.684;37.864;2022-12-18T23:05:08;100876.88;;;-9.96;74.47
75208;BME280;63795;55.684;37.864;2022-12-18T23:10:08;100887.50;;;-10.00;74.76
75208;BME280;63795;55.684;37.864;2022-12-18T23:15:09;100892.75;;;-9.98;75.21
75208;BME280;63795;55.684;37.864;2022-12-18T23:20:10;100891.75;;;-9.92;74.89
75208;BME280;63795;55.684;37.864;2022-12-18T23:25:10;100899.22;;;-9.88;74.46
75208;BME280;63795;55.684;37.864;2022-12-18T23:30:11;100909.59;;;-9.90;74.78
75208;BME280;63795;55.684;37.864;2022-12-18T23:35:12;100901.88;;;-9.93;74.64
75208;BME280;63795;55.684;37.864;2022-12-18T23:40:12;100918.22;;;-9.98;74.75
75208;BME280;63795;55.684;37.864;2022-12-18T23:45:13;100913.72;;;-10.04;75.14
75208;BME280;63795;55.684;37.864;2022-12-18T23:50:13;100928.59;;;-10.00;75.17
75208;BME280;63795;55.684;37.864;2022-12-18T23:55:14;100937.94;;;-10.01;75.48
